sensor_id;sensor_type;location;lat;lon;timestamp;P1;durP1;ratioP1;P2;durP2;ratioP2
23236;SDS011;11787;52.018;8.570;2023-04-03T00:00:29;3.83;;;1.40;;
23236;SDS011;11787;52.018;8.570;2023-04-03T00:02:55;2.95;;;1.30;;
23236;SDS011;11787;52.018;8.570;2023-04-03T00:05:21;4.80;;;1.30;;
23236;SDS011;11787;52.018;8.570;2023-04-03T00:07:46;4.25;;;1.38;;
23236;SDS011;11787;52.018;8.570;2023-04-03T00:10:12;4.13;;;1.80;;
23236;SDS011;11787;52.018;8.570;2023-04-03T00:12:38;5.55;;;1.40;;
23236;SDS011;11787;52.018;8.570;2023-04-03T00:15:04;3.88;;;1.45;;
23236;SDS011;11787;52.018;8.570;2023-04-03T00:17:30;5.20;;;1.30;;
23236;SDS011;11787;52.018;8.570;2023-04-03T00:19:55;3.58;;;1.50;;
23236;SDS011;11787;52.018;8.570;2023-04-03T00:22:21;4.75;;;1.30;;
23236;SDS011;11787;52.018;8.570;2023-04-03T00:24:47;3.05;;;1.27;;
23236;SDS011;11787;52.018;8.570;2023-04-03T00:27:12;5.97;;;1.73;;
23236;SDS011;11787;52.018;8.570;2023-04-03T00:29:38;3.63;;;1.10;;
23236;SDS011;11787;52.018;8.570;2023-04-03T00:32:03;3.85;;;1.25;;
23236;SDS011;11787;52.018;8.570;2023-04-03T00:34:29;4.05;;;1.48;;
23236;SDS011;11787;52.018;8.570;2023-04-03T00:36:55;5.80;;;1.42;;
23236;SDS011;11787;52.018;8.570;2023-04-03T00:39:20;5.38;;;1.20;;
23236;SDS011;11787;52.018;8.570;2023-04-03T00:41:46;4.80;;;1.30;;
23236;SDS011;11787;52.018;8.570;2023-04-03T00:46:59;5.50;;;1.38;;
23236;SDS011;11787;52.018;8.570;2023-04-03T00:49:25;9.23;;;1.70;;
23236;SDS011;11787;52.018;8.570;2023-04-03T00:51:51;5.45;;;1.60;;
23236;SDS011;11787;52.018;8.570;2023-04-03T00:54:17;4.05;;;1.20;;
23236;SDS011;11787;52.018;8.570;2023-04-03T00:56:43;4.35;;;1.33;;
23236;SDS011;11787;52.018;8.570;2023-04-03T00:59:12;5.80;;;1.50;;
23236;SDS011;11787;52.018;8.570;2023-04-03T01:01:40;4.72;;;1.42;;
23236;SDS011;11787;52.018;8.570;2023-04-03T01:04:24;3.28;;;1.35;;
23236;SDS011;11787;52.018;8.570;2023-04-03T01:06:53;4.70;;;1.30;;
23236;SDS011;11787;52.018;8.570;2023-04-03T01:09:21;5.63;;;1.00;;
23236;SDS011;11787;52.018;8.570;2023-04-03T01:11:47;3.58;;;1.52;;
23236;SDS011;11787;52.018;8.570;2023-04-03T01:14:13;3.88;;;1.13;;
23236;SDS011;11787;52.018;8.570;2023-04-03T01:16:38;3.05;;;1.27;;
23236;SDS011;11787;52.018;8.570;2023-04-03T01:19:05;6.20;;;1.23;;
23236;SDS011;11787;52.018;8.570;2023-04-03T01:27:09;4.60;;;1.50;;
23236;SDS011;11787;52.018;8.570;2023-04-03T01:29:35;3.58;;;0.95;;
23236;SDS011;11787;52.018;8.570;2023-04-03T01:32:02;3.35;;;1.30;;
23236;SDS011;11787;52.018;8.570;2023-04-03T01:34:28;4.28;;;1.05;;
23236;SDS011;11787;52.018;8.570;2023-04-03T01:36:55;6.22;;;1.60;;
23236;SDS011;11787;52.018;8.570;2023-04-03T01:39:21;4.07;;;1.27;;
23236;SDS011;11787;52.018;8.570;2023-04-03T01:41:47;3.78;;;1.17;;
23236;SDS011;11787;52.018;8.570;2023-04-03T01:44:13;6.30;;;1.70;;
23236;SDS011;11787;52.018;8.570;2023-04-03T01:46:39;2.72;;;1.30;;
23236;SDS011;11787;52.018;8.570;2023-04-03T01:49:06;2.60;;;1.08;;
23236;SDS011;11787;52.018;8.570;2023-04-03T01:51:31;2.47;;;1.10;;
23236;SDS011;11787;52.018;8.570;2023-04-03T01:53:58;3.30;;;1.48;;
23236;SDS011;11787;52.018;8.570;2023-04-03T01:56:23;4.07;;;1.30;;
23236;SDS011;11787;52.018;8.570;2023-04-03T01:58:50;5.90;;;1.27;;
23236;SDS011;11787;52.018;8.570;2023-04-03T02:01:15;4.72;;;1.20;;
23236;SDS011;11787;52.018;8.570;2023-04-03T02:03:41;7.00;;;1.85;;
23236;SDS011;11787;52.018;8.570;2023-04-03T02:06:06;5.43;;;1.90;;
23236;SDS011;11787;52.018;8.570;2023-04-03T02:08:32;3.47;;;1.17;;
23236;SDS011;11787;52.018;8.570;2023-04-03T02:10:58;6.57;;;1.50;;
23236;SDS011;11787;52.018;8.570;2023-04-03T02:13:23;4.35;;;1.10;;
23236;SDS011;11787;52.018;8.570;2023-04-03T02:15:49;7.78;;;1.33;;
23236;SDS011;11787;52.018;8.570;2023-04-03T02:18:15;4.57;;;1.73;;
23236;SDS011;11787;52.018;8.570;2023-04-03T02:20:40;5.10;;;1.52;;
23236;SDS011;11787;52.018;8.570;2023-04-03T02:23:06;4.35;;;1.02;;
23236;SDS011;11787;52.018;8.570;2023-04-03T02:25:32;6.25;;;1.50;;
23236;SDS011;11787;52.018;8.570;2023-04-03T02:27:58;3.65;;;1.23;;
23236;SDS011;11787;52.018;8.570;2023-04-03T02:30:24;7.20;;;1.45;;
23236;SDS011;11787;52.018;8.570;2023-04-03T02:32:50;4.10;;;1.20;;
23236;SDS011;11787;52.018;8.570;2023-04-03T02:35:15;3.60;;;1.33;;
23236;SDS011;11787;52.018;8.570;2023-04-03T02:37:41;7.63;;;1.63;;
23236;SDS011;11787;52.018;8.570;2023-04-03T02:40:07;5.93;;;1.60;;
23236;SDS011;11787;52.018;8.570;2023-04-03T02:42:33;2.17;;;1.20;;
23236;SDS011;11787;52.018;8.570;2023-04-03T02:44:59;3.58;;;1.60;;
23236;SDS011;11787;52.018;8.570;2023-04-03T02:47:25;5.32;;;1.60;;
23236;SDS011;11787;52.018;8.570;2023-04-03T02:49:54;3.70;;;1.20;;
23236;SDS011;11787;52.018;8.570;2023-04-03T02:52:19;5.78;;;1.40;;
23236;SDS011;11787;52.018;8.570;2023-04-03T02:54:45;4.03;;;1.60;;
23236;SDS011;11787;52.018;8.570;2023-04-03T02:57:11;2.42;;;1.08;;
23236;SDS011;11787;52.018;8.570;2023-04-03T02:59:37;4.75;;;1.42;;
23236;SDS011;11787;52.018;8.570;2023-04-03T03:02:09;3.83;;;1.30;;
23236;SDS011;11787;52.018;8.570;2023-04-03T03:04:35;4.72;;;1.23;;
23236;SDS011;11787;52.018;8.570;2023-04-03T03:07:01;7.22;;;1.65;;
23236;SDS011;11787;52.018;8.570;2023-04-03T03:09:27;6.40;;;1.30;;
23236;SDS011;11787;52.018;8.570;2023-04-03T03:11:54;3.38;;;1.30;;
23236;SDS011;11787;52.018;8.570;2023-04-03T03:14:20;3.78;;;1.20;;
23236;SDS011;11787;52.018;8.570;2023-04-03T03:16:45;3.42;;;1.20;;
23236;SDS011;11787;52.018;8.570;2023-04-03T03:19:11;3.80;;;1.38;;
23236;SDS011;11787;52.018;8.570;2023-04-03T03:21:36;5.45;;;1.40;;
23236;SDS011;11787;52.018;8.570;2023-04-03T03:24:02;5.43;;;1.60;;
23236;SDS011;11787;52.018;8.570;2023-04-03T03:26:28;3.58;;;1.55;;
23236;SDS011;11787;52.018;8.570;2023-04-03T03:28:54;5.13;;;1.60;;
23236;SDS011;11787;52.018;8.570;2023-04-03T03:31:19;3.83;;;1.30;;
23236;SDS011;11787;52.018;8.570;2023-04-03T03:33:45;6.40;;;1.50;;
23236;SDS011;11787;52.018;8.570;2023-04-03T03:36:11;4.32;;;1.67;;
23236;SDS011;11787;52.018;8.570;2023-04-03T03:38:36;5.47;;;1.67;;
23236;SDS011;11787;52.018;8.570;2023-04-03T03:41:02;7.28;;;1.73;;
23236;SDS011;11787;52.018;8.570;2023-04-03T03:43:28;3.83;;;1.40;;
23236;SDS011;11787;52.018;8.570;2023-04-03T03:45:54;4.18;;;1.38;;
23236;SDS011;11787;52.018;8.570;2023-04-03T03:48:20;4.30;;;1.50;;
23236;SDS011;11787;52.018;8.570;2023-04-03T03:50:47;7.57;;;1.85;;
23236;SDS011;11787;52.018;8.570;2023-04-03T03:53:13;8.10;;;3.95;;
23236;SDS011;11787;52.018;8.570;2023-04-03T03:55:39;6.47;;;1.73;;
23236;SDS011;11787;52.018;8.570;2023-04-03T03:58:05;4.55;;;1.83;;
23236;SDS011;11787;52.018;8.570;2023-04-03T04:00:31;2.85;;;1.20;;
23236;SDS011;11787;52.018;8.570;2023-04-03T04:02:56;6.00;;;2.00;;
23236;SDS011;11787;52.018;8.570;2023-04-03T04:05:22;6.03;;;1.90;;
23236;SDS011;11787;52.018;8.570;2023-04-03T04:07:48;4.10;;;1.70;;
23236;SDS011;11787;52.018;8.570;2023-04-03T04:10:13;5.05;;;1.67;;
23236;SDS011;11787;52.018;8.570;2023-04-03T04:12:39;3.90;;;1.80;;
23236;SDS011;11787;52.018;8.570;2023-04-03T04:15:05;5.28;;;1.80;;
23236;SDS011;11787;52.018;8.570;2023-04-03T04:17:31;4.63;;;1.63;;
23236;SDS011;11787;52.018;8.570;2023-04-03T04:19:57;6.30;;;2.13;;
23236;SDS011;11787;52.018;8.570;2023-04-03T04:22:22;5.82;;;1.38;;
23236;SDS011;11787;52.018;8.570;2023-04-03T04:24:48;9.43;;;2.08;;
23236;SDS011;11787;52.018;8.570;2023-04-03T04:27:13;6.53;;;1.67;;
23236;SDS011;11787;52.018;8.570;2023-04-03T04:29:40;6.47;;;1.80;;
23236;SDS011;11787;52.018;8.570;2023-04-03T04:32:06;4.68;;;1.45;;
23236;SDS011;11787;52.018;8.570;2023-04-03T04:34:31;6.85;;;2.15;;
23236;SDS011;11787;52.018;8.570;2023-04-03T04:36:57;6.22;;;1.92;;
23236;SDS011;11787;52.018;8.570;2023-04-03T04:39:23;5.13;;;1.60;;
23236;SDS011;11787;52.018;8.570;2023-04-03T04:41:48;8.32;;;2.00;;
23236;SDS011;11787;52.018;8.570;2023-04-03T04:44:14;4.03;;;1.60;;
23236;SDS011;11787;52.018;8.570;2023-04-03T04:46:40;5.15;;;2.10;;
23236;SDS011;11787;52.018;8.570;2023-04-03T04:49:05;3.25;;;1.70;;
23236;SDS011;11787;52.018;8.570;2023-04-03T04:51:31;5.32;;;2.63;;
23236;SDS011;11787;52.018;8.570;2023-04-03T04:53:56;8.35;;;2.65;;
23236;SDS011;11787;52.018;8.570;2023-04-03T04:56:22;14.57;;;4.82;;
23236;SDS011;11787;52.018;8.570;2023-04-03T04:58:48;10.90;;;4.30;;
23236;SDS011;11787;52.018;8.570;2023-04-03T05:01:13;11.80;;;3.75;;
23236;SDS011;11787;52.018;8.570;2023-04-03T05:03:39;6.65;;;2.33;;
23236;SDS011;11787;52.018;8.570;2023-04-03T05:06:05;6.38;;;2.47;;
23236;SDS011;11787;52.018;8.570;2023-04-03T05:08:31;7.93;;;2.63;;
23236;SDS011;11787;52.018;8.570;2023-04-03T05:10:57;5.97;;;2.72;;
23236;SDS011;11787;52.018;8.570;2023-04-03T05:13:22;14.23;;;6.03;;
23236;SDS011;11787;52.018;8.570;2023-04-03T05:15:48;9.45;;;4.15;;
23236;SDS011;11787;52.018;8.570;2023-04-03T05:18:14;18.10;;;6.88;;
23236;SDS011;11787;52.018;8.570;2023-04-03T05:20:39;21.17;;;10.38;;
23236;SDS011;11787;52.018;8.570;2023-04-03T05:23:05;21.80;;;8.13;;
23236;SDS011;11787;52.018;8.570;2023-04-03T05:25:31;11.73;;;5.43;;
23236;SDS011;11787;52.018;8.570;2023-04-03T05:27:57;7.35;;;3.15;;
23236;SDS011;11787;52.018;8.570;2023-04-03T05:30:22;6.95;;;2.40;;
23236;SDS011;11787;52.018;8.570;2023-04-03T05:32:48;10.07;;;2.63;;
23236;SDS011;11787;52.018;8.570;2023-04-03T05:35:14;5.38;;;1.70;;
23236;SDS011;11787;52.018;8.570;2023-04-03T05:37:39;5.53;;;2.03;;
23236;SDS011;11787;52.018;8.570;2023-04-03T05:40:06;4.78;;;2.30;;
23236;SDS011;11787;52.018;8.570;2023-04-03T05:42:32;5.90;;;1.75;;
23236;SDS011;11787;52.018;8.570;2023-04-03T05:44:58;6.32;;;1.75;;
23236;SDS011;11787;52.018;8.570;2023-04-03T05:47:23;5.82;;;1.90;;
23236;SDS011;11787;52.018;8.570;2023-04-03T05:49:49;6.70;;;2.00;;
23236;SDS011;11787;52.018;8.570;2023-04-03T05:52:22;5.75;;;1.98;;
23236;SDS011;11787;52.018;8.570;2023-04-03T05:54:51;5.30;;;1.70;;
23236;SDS011;11787;52.018;8.570;2023-04-03T05:57:17;7.80;;;1.95;;
23236;SDS011;11787;52.018;8.570;2023-04-03T05:59:43;8.45;;;2.45;;
23236;SDS011;11787;52.018;8.570;2023-04-03T06:02:14;5.25;;;1.58;;
23236;SDS011;11787;52.018;8.570;2023-04-03T06:04:42;7.05;;;1.73;;
23236;SDS011;11787;52.018;8.570;2023-04-03T06:07:09;5.47;;;1.83;;
23236;SDS011;11787;52.018;8.570;2023-04-03T06:09:38;5.45;;;1.77;;
23236;SDS011;11787;52.018;8.570;2023-04-03T06:12:03;9.02;;;2.75;;
23236;SDS011;11787;52.018;8.570;2023-04-03T06:14:29;3.90;;;1.75;;
23236;SDS011;11787;52.018;8.570;2023-04-03T06:16:55;6.40;;;2.00;;
23236;SDS011;11787;52.018;8.570;2023-04-03T06:19:21;4.65;;;2.10;;
23236;SDS011;11787;52.018;8.570;2023-04-03T06:21:46;8.43;;;3.97;;
23236;SDS011;11787;52.018;8.570;2023-04-03T06:24:14;6.40;;;1.88;;
23236;SDS011;11787;52.018;8.570;2023-04-03T06:26:41;8.50;;;1.98;;
23236;SDS011;11787;52.018;8.570;2023-04-03T06:29:07;7.18;;;2.28;;
23236;SDS011;11787;52.018;8.570;2023-04-03T06:31:33;9.82;;;3.33;;
23236;SDS011;11787;52.018;8.570;2023-04-03T06:33:58;7.63;;;1.98;;
23236;SDS011;11787;52.018;8.570;2023-04-03T06:36:24;4.68;;;1.95;;
23236;SDS011;11787;52.018;8.570;2023-04-03T06:38:50;5.00;;;2.03;;
23236;SDS011;11787;52.018;8.570;2023-04-03T06:41:16;4.78;;;1.67;;
23236;SDS011;11787;52.018;8.570;2023-04-03T06:43:42;9.52;;;1.88;;
23236;SDS011;11787;52.018;8.570;2023-04-03T06:46:15;5.28;;;2.17;;
23236;SDS011;11787;52.018;8.570;2023-04-03T06:48:45;8.60;;;1.67;;
23236;SDS011;11787;52.018;8.570;2023-04-03T06:51:16;7.22;;;1.95;;
23236;SDS011;11787;52.018;8.570;2023-04-03T06:53:43;8.18;;;1.80;;
23236;SDS011;11787;52.018;8.570;2023-04-03T06:56:10;4.90;;;1.58;;
23236;SDS011;11787;52.018;8.570;2023-04-03T06:58:36;7.05;;;1.98;;
23236;SDS011;11787;52.018;8.570;2023-04-03T07:01:02;4.25;;;1.50;;
23236;SDS011;11787;52.018;8.570;2023-04-03T07:03:27;6.13;;;1.48;;
23236;SDS011;11787;52.018;8.570;2023-04-03T07:05:53;3.85;;;1.25;;
23236;SDS011;11787;52.018;8.570;2023-04-03T07:08:19;4.45;;;1.80;;
23236;SDS011;11787;52.018;8.570;2023-04-03T07:10:45;3.95;;;1.38;;
23236;SDS011;11787;52.018;8.570;2023-04-03T07:13:10;5.22;;;1.17;;
23236;SDS011;11787;52.018;8.570;2023-04-03T07:15:36;9.25;;;2.15;;
23236;SDS011;11787;52.018;8.570;2023-04-03T07:18:02;5.45;;;1.30;;
23236;SDS011;11787;52.018;8.570;2023-04-03T07:20:29;2.40;;;1.10;;
23236;SDS011;11787;52.018;8.570;2023-04-03T07:22:55;3.08;;;1.40;;
23236;SDS011;11787;52.018;8.570;2023-04-03T07:25:20;2.35;;;1.25;;
23236;SDS011;11787;52.018;8.570;2023-04-03T07:27:46;6.28;;;1.75;;
23236;SDS011;11787;52.018;8.570;2023-04-03T07:30:12;3.28;;;1.40;;
23236;SDS011;11787;52.018;8.570;2023-04-03T07:32:39;3.70;;;1.23;;
23236;SDS011;11787;52.018;8.570;2023-04-03T07:35:04;4.28;;;1.10;;
23236;SDS011;11787;52.018;8.570;2023-04-03T07:37:30;3.50;;;0.90;;
23236;SDS011;11787;52.018;8.570;2023-04-03T07:39:57;4.43;;;1.30;;
23236;SDS011;11787;52.018;8.570;2023-04-03T07:42:24;4.70;;;1.10;;
23236;SDS011;11787;52.018;8.570;2023-04-03T07:44:52;4.53;;;1.10;;
23236;SDS011;11787;52.018;8.570;2023-04-03T07:47:18;3.78;;;1.15;;
23236;SDS011;11787;52.018;8.570;2023-04-03T07:49:46;2.75;;;1.00;;
23236;SDS011;11787;52.018;8.570;2023-04-03T07:52:12;3.85;;;1.25;;
23236;SDS011;11787;52.018;8.570;2023-04-03T07:54:39;2.53;;;1.20;;
23236;SDS011;11787;52.018;8.570;2023-04-03T07:57:05;3.92;;;1.20;;
23236;SDS011;11787;52.018;8.570;2023-04-03T07:59:31;4.07;;;1.20;;
23236;SDS011;11787;52.018;8.570;2023-04-03T08:01:57;3.45;;;1.13;;
23236;SDS011;11787;52.018;8.570;2023-04-03T08:04:22;4.45;;;1.10;;
23236;SDS011;11787;52.018;8.570;2023-04-03T08:06:48;5.53;;;1.60;;
23236;SDS011;11787;52.018;8.570;2023-04-03T08:09:14;4.78;;;1.10;;
23236;SDS011;11787;52.018;8.570;2023-04-03T08:11:40;4.20;;;1.00;;
23236;SDS011;11787;52.018;8.570;2023-04-03T08:14:06;6.05;;;1.75;;
23236;SDS011;11787;52.018;8.570;2023-04-03T08:16:32;5.22;;;1.10;;
23236;SDS011;11787;52.018;8.570;2023-04-03T08:18:58;4.50;;;1.17;;
23236;SDS011;11787;52.018;8.570;2023-04-03T08:21:24;3.15;;;1.40;;
23236;SDS011;11787;52.018;8.570;2023-04-03T08:23:50;4.07;;;1.35;;
23236;SDS011;11787;52.018;8.570;2023-04-03T08:26:16;2.90;;;0.93;;
23236;SDS011;11787;52.018;8.570;2023-04-03T08:28:45;3.50;;;1.20;;
23236;SDS011;11787;52.018;8.570;2023-04-03T08:31:12;2.40;;;0.98;;
23236;SDS011;11787;52.018;8.570;2023-04-03T08:33:40;5.03;;;1.25;;
23236;SDS011;11787;52.018;8.570;2023-04-03T08:36:07;5.53;;;1.10;;
23236;SDS011;11787;52.018;8.570;2023-04-03T08:38:40;4.50;;;1.50;;
23236;SDS011;11787;52.018;8.570;2023-04-03T08:46:21;5.20;;;1.50;;
23236;SDS011;11787;52.018;8.570;2023-04-03T08:48:52;4.30;;;1.33;;
23236;SDS011;11787;52.018;8.570;2023-04-03T08:51:20;3.38;;;1.23;;
23236;SDS011;11787;52.018;8.570;2023-04-03T08:54:01;4.85;;;1.38;;
23236;SDS011;11787;52.018;8.570;2023-04-03T08:56:30;2.65;;;1.23;;
23236;SDS011;11787;52.018;8.570;2023-04-03T08:58:58;5.18;;;0.90;;
23236;SDS011;11787;52.018;8.570;2023-04-03T09:01:30;3.08;;;1.00;;
23236;SDS011;11787;52.018;8.570;2023-04-03T09:04:01;4.18;;;1.30;;
23236;SDS011;11787;52.018;8.570;2023-04-03T09:06:31;3.08;;;1.00;;
23236;SDS011;11787;52.018;8.570;2023-04-03T09:14:42;5.40;;;1.27;;
23236;SDS011;11787;52.018;8.570;2023-04-03T09:22:45;3.78;;;0.88;;
23236;SDS011;11787;52.018;8.570;2023-04-03T09:25:20;4.28;;;1.25;;
23236;SDS011;11787;52.018;8.570;2023-04-03T09:27:47;3.75;;;1.10;;
23236;SDS011;11787;52.018;8.570;2023-04-03T09:30:14;2.47;;;0.77;;
23236;SDS011;11787;52.018;8.570;2023-04-03T09:32:41;6.95;;;1.25;;
23236;SDS011;11787;52.018;8.570;2023-04-03T09:37:47;4.32;;;1.20;;
23236;SDS011;11787;52.018;8.570;2023-04-03T09:40:35;2.55;;;1.13;;
23236;SDS011;11787;52.018;8.570;2023-04-03T09:45:43;4.55;;;1.40;;
23236;SDS011;11787;52.018;8.570;2023-04-03T09:53:30;4.38;;;1.13;;
23236;SDS011;11787;52.018;8.570;2023-04-03T09:58:42;3.13;;;1.00;;
23236;SDS011;11787;52.018;8.570;2023-04-03T10:04:21;2.97;;;0.90;;
23236;SDS011;11787;52.018;8.570;2023-04-03T10:06:51;2.40;;;0.80;;
23236;SDS011;11787;52.018;8.570;2023-04-03T10:09:29;3.95;;;1.00;;
23236;SDS011;11787;52.018;8.570;2023-04-03T10:11:58;12.00;;;2.08;;
23236;SDS011;11787;52.018;8.570;2023-04-03T13:46:32;2.40;;;1.08;;
23236;SDS011;11787;52.018;8.570;2023-04-03T13:48:57;2.63;;;0.80;;
23236;SDS011;11787;52.018;8.570;2023-04-03T13:51:42;2.50;;;0.95;;
23236;SDS011;11787;52.018;8.570;2023-04-03T13:57:14;3.13;;;1.27;;
23236;SDS011;11787;52.018;8.570;2023-04-03T13:59:40;3.17;;;1.40;;
23236;SDS011;11787;52.018;8.570;2023-04-03T14:02:20;4.60;;;1.10;;
23236;SDS011;11787;52.018;8.570;2023-04-03T14:04:57;2.17;;;0.85;;
23236;SDS011;11787;52.018;8.570;2023-04-03T14:07:26;2.13;;;0.70;;
23236;SDS011;11787;52.018;8.570;2023-04-03T14:09:54;4.13;;;1.17;;
23236;SDS011;11787;52.018;8.570;2023-04-03T14:12:31;2.50;;;1.10;;
23236;SDS011;11787;52.018;8.570;2023-04-03T14:15:03;3.28;;;0.80;;
23236;SDS011;11787;52.018;8.570;2023-04-03T14:17:32;3.85;;;0.95;;
23236;SDS011;11787;52.018;8.570;2023-04-03T14:19:58;3.03;;;1.02;;
23236;SDS011;11787;52.018;8.570;2023-04-03T14:22:26;5.15;;;1.27;;
23236;SDS011;11787;52.018;8.570;2023-04-03T14:24:54;3.95;;;1.15;;
23236;SDS011;11787;52.018;8.570;2023-04-03T14:27:22;4.45;;;1.10;;
23236;SDS011;11787;52.018;8.570;2023-04-03T14:29:58;2.97;;;0.90;;
23236;SDS011;11787;52.018;8.570;2023-04-03T14:32:24;2.30;;;0.80;;
23236;SDS011;11787;52.018;8.570;2023-04-03T14:34:51;3.65;;;1.50;;
23236;SDS011;11787;52.018;8.570;2023-04-03T14:37:20;3.47;;;1.08;;
23236;SDS011;11787;52.018;8.570;2023-04-03T14:39:48;3.03;;;1.30;;
23236;SDS011;11787;52.018;8.570;2023-04-03T14:42:20;2.33;;;1.13;;
23236;SDS011;11787;52.018;8.570;2023-04-03T14:44:47;4.07;;;1.70;;
23236;SDS011;11787;52.018;8.570;2023-04-03T14:47:15;3.75;;;1.08;;
23236;SDS011;11787;52.018;8.570;2023-04-03T14:49:43;4.10;;;1.27;;
23236;SDS011;11787;52.018;8.570;2023-04-03T14:54:52;4.15;;;1.55;;
23236;SDS011;11787;52.018;8.570;2023-04-03T14:57:19;3.17;;;1.77;;
23236;SDS011;11787;52.018;8.570;2023-04-03T14:59:46;3.05;;;1.17;;
23236;SDS011;11787;52.018;8.570;2023-04-03T15:04:53;4.72;;;1.20;;
23236;SDS011;11787;52.018;8.570;2023-04-03T15:07:20;4.80;;;0.98;;
23236;SDS011;11787;52.018;8.570;2023-04-03T15:09:46;5.13;;;1.30;;
23236;SDS011;11787;52.018;8.570;2023-04-03T15:12:12;4.55;;;1.00;;
23236;SDS011;11787;52.018;8.570;2023-04-03T15:14:37;2.60;;;1.15;;
23236;SDS011;11787;52.018;8.570;2023-04-03T15:17:06;3.05;;;1.15;;
23236;SDS011;11787;52.018;8.570;2023-04-03T15:19:39;3.92;;;0.95;;
23236;SDS011;11787;52.018;8.570;2023-04-03T15:22:05;1.30;;;0.90;;
23236;SDS011;11787;52.018;8.570;2023-04-03T15:24:31;4.00;;;1.30;;
23236;SDS011;11787;52.018;8.570;2023-04-03T15:26:57;3.03;;;1.05;;
23236;SDS011;11787;52.018;8.570;2023-04-03T15:29:23;2.30;;;1.05;;
23236;SDS011;11787;52.018;8.570;2023-04-03T15:31:48;3.70;;;1.20;;
23236;SDS011;11787;52.018;8.570;2023-04-03T15:34:17;5.53;;;1.75;;
23236;SDS011;11787;52.018;8.570;2023-04-03T15:36:43;4.50;;;1.40;;
23236;SDS011;11787;52.018;8.570;2023-04-03T15:39:08;4.10;;;1.08;;
23236;SDS011;11787;52.018;8.570;2023-04-03T15:41:34;2.17;;;1.00;;
23236;SDS011;11787;52.018;8.570;2023-04-03T15:44:00;4.65;;;1.27;;
23236;SDS011;11787;52.018;8.570;2023-04-03T15:46:25;2.00;;;0.80;;
23236;SDS011;11787;52.018;8.570;2023-04-03T15:48:51;2.55;;;0.93;;
23236;SDS011;11787;52.018;8.570;2023-04-03T15:51:16;3.72;;;0.90;;
23236;SDS011;11787;52.018;8.570;2023-04-03T15:53:42;3.50;;;0.85;;
23236;SDS011;11787;52.018;8.570;2023-04-03T15:56:08;3.40;;;0.88;;
23236;SDS011;11787;52.018;8.570;2023-04-03T15:58:34;5.07;;;1.02;;
23236;SDS011;11787;52.018;8.570;2023-04-03T16:01:00;4.30;;;1.40;;
23236;SDS011;11787;52.018;8.570;2023-04-03T16:03:26;3.08;;;1.00;;
23236;SDS011;11787;52.018;8.570;2023-04-03T16:05:52;5.05;;;1.20;;
23236;SDS011;11787;52.018;8.570;2023-04-03T16:08:18;4.65;;;1.15;;
23236;SDS011;11787;52.018;8.570;2023-04-03T16:10:44;1.95;;;0.90;;
23236;SDS011;11787;52.018;8.570;2023-04-03T16:13:11;5.07;;;1.17;;
23236;SDS011;11787;52.018;8.570;2023-04-03T16:15:37;2.00;;;1.00;;
23236;SDS011;11787;52.018;8.570;2023-04-03T16:18:04;1.70;;;1.00;;
23236;SDS011;11787;52.018;8.570;2023-04-03T16:20:30;3.30;;;1.10;;
23236;SDS011;11787;52.018;8.570;2023-04-03T16:22:57;3.92;;;1.20;;
23236;SDS011;11787;52.018;8.570;2023-04-03T16:25:24;4.00;;;1.00;;
23236;SDS011;11787;52.018;8.570;2023-04-03T16:27:50;3.20;;;1.02;;
23236;SDS011;11787;52.018;8.570;2023-04-03T16:30:16;2.40;;;0.95;;
23236;SDS011;11787;52.018;8.570;2023-04-03T16:32:42;3.97;;;2.22;;
23236;SDS011;11787;52.018;8.570;2023-04-03T16:35:08;3.35;;;1.23;;
23236;SDS011;11787;52.018;8.570;2023-04-03T16:37:35;2.58;;;1.02;;
23236;SDS011;11787;52.018;8.570;2023-04-03T16:40:01;3.35;;;1.02;;
23236;SDS011;11787;52.018;8.570;2023-04-03T16:42:27;1.77;;;1.00;;
23236;SDS011;11787;52.018;8.570;2023-04-03T16:44:53;2.40;;;1.27;;
23236;SDS011;11787;52.018;8.570;2023-04-03T16:47:19;2.17;;;0.98;;
23236;SDS011;11787;52.018;8.570;2023-04-03T16:49:45;1.42;;;1.10;;
23236;SDS011;11787;52.018;8.570;2023-04-03T16:52:12;2.70;;;0.93;;
23236;SDS011;11787;52.018;8.570;2023-04-03T16:54:37;3.45;;;1.15;;
23236;SDS011;11787;52.018;8.570;2023-04-03T16:57:03;3.45;;;1.20;;
23236;SDS011;11787;52.018;8.570;2023-04-03T16:59:29;6.90;;;1.10;;
23236;SDS011;11787;52.018;8.570;2023-04-03T17:01:54;6.55;;;1.25;;
23236;SDS011;11787;52.018;8.570;2023-04-03T17:04:20;2.42;;;0.90;;
23236;SDS011;11787;52.018;8.570;2023-04-03T17:06:45;3.35;;;0.93;;
23236;SDS011;11787;52.018;8.570;2023-04-03T17:09:11;2.88;;;1.02;;
23236;SDS011;11787;52.018;8.570;2023-04-03T17:11:37;4.05;;;1.00;;
23236;SDS011;11787;52.018;8.570;2023-04-03T17:14:03;4.50;;;1.17;;
23236;SDS011;11787;52.018;8.570;2023-04-03T17:16:29;2.88;;;1.20;;
23236;SDS011;11787;52.018;8.570;2023-04-03T17:18:57;4.20;;;1.25;;
23236;SDS011;11787;52.018;8.570;2023-04-03T17:21:23;2.20;;;1.15;;
23236;SDS011;11787;52.018;8.570;2023-04-03T17:23:50;4.18;;;1.27;;
23236;SDS011;11787;52.018;8.570;2023-04-03T17:26:22;3.78;;;1.27;;
23236;SDS011;11787;52.018;8.570;2023-04-03T17:28:48;2.75;;;1.00;;
23236;SDS011;11787;52.018;8.570;2023-04-03T17:31:13;3.13;;;1.25;;
23236;SDS011;11787;52.018;8.570;2023-04-03T17:33:39;3.83;;;1.20;;
23236;SDS011;11787;52.018;8.570;2023-04-03T17:36:05;3.38;;;1.30;;
23236;SDS011;11787;52.018;8.570;2023-04-03T17:38:31;3.10;;;1.25;;
23236;SDS011;11787;52.018;8.570;2023-04-03T17:40:58;2.90;;;1.05;;
23236;SDS011;11787;52.018;8.570;2023-04-03T17:43:28;2.75;;;1.05;;
23236;SDS011;11787;52.018;8.570;2023-04-03T17:45:58;2.88;;;1.20;;
23236;SDS011;11787;52.018;8.570;2023-04-03T17:48:29;4.22;;;1.08;;
23236;SDS011;11787;52.018;8.570;2023-04-03T17:50:58;3.33;;;1.20;;
23236;SDS011;11787;52.018;8.570;2023-04-03T17:53:27;3.22;;;1.17;;
23236;SDS011;11787;52.018;8.570;2023-04-03T17:55:53;3.22;;;1.20;;
23236;SDS011;11787;52.018;8.570;2023-04-03T17:58:18;4.07;;;1.25;;
23236;SDS011;11787;52.018;8.570;2023-04-03T18:00:44;2.00;;;0.90;;
23236;SDS011;11787;52.018;8.570;2023-04-03T18:03:10;2.60;;;1.23;;
23236;SDS011;11787;52.018;8.570;2023-04-03T18:05:35;3.20;;;1.13;;
23236;SDS011;11787;52.018;8.570;2023-04-03T18:08:01;3.58;;;1.05;;
23236;SDS011;11787;52.018;8.570;2023-04-03T18:10:27;3.25;;;1.20;;
23236;SDS011;11787;52.018;8.570;2023-04-03T18:12:54;3.15;;;1.42;;
23236;SDS011;11787;52.018;8.570;2023-04-03T18:15:20;3.28;;;2.33;;
23236;SDS011;11787;52.018;8.570;2023-04-03T18:17:47;4.60;;;1.42;;
23236;SDS011;11787;52.018;8.570;2023-04-03T18:20:15;2.25;;;1.10;;
23236;SDS011;11787;52.018;8.570;2023-04-03T18:22:41;3.40;;;1.25;;
23236;SDS011;11787;52.018;8.570;2023-04-03T18:25:08;4.63;;;1.50;;
23236;SDS011;11787;52.018;8.570;2023-04-03T18:27:35;4.93;;;1.90;;
23236;SDS011;11787;52.018;8.570;2023-04-03T18:30:05;3.80;;;1.58;;
23236;SDS011;11787;52.018;8.570;2023-04-03T18:32:33;3.63;;;1.90;;
23236;SDS011;11787;52.018;8.570;2023-04-03T18:34:58;4.55;;;2.17;;
23236;SDS011;11787;52.018;8.570;2023-04-03T18:37:24;2.97;;;1.65;;
23236;SDS011;11787;52.018;8.570;2023-04-03T18:39:50;4.47;;;2.05;;
23236;SDS011;11787;52.018;8.570;2023-04-03T18:42:20;4.25;;;2.00;;
23236;SDS011;11787;52.018;8.570;2023-04-03T18:44:49;4.18;;;2.10;;
23236;SDS011;11787;52.018;8.570;2023-04-03T18:47:18;3.70;;;1.80;;
23236;SDS011;11787;52.018;8.570;2023-04-03T18:49:44;4.72;;;2.22;;
23236;SDS011;11787;52.018;8.570;2023-04-03T18:52:10;3.25;;;2.20;;
23236;SDS011;11787;52.018;8.570;2023-04-03T18:54:36;4.03;;;2.05;;
23236;SDS011;11787;52.018;8.570;2023-04-03T18:57:02;5.22;;;1.90;;
23236;SDS011;11787;52.018;8.570;2023-04-03T18:59:28;3.95;;;2.15;;
23236;SDS011;11787;52.018;8.570;2023-04-03T19:01:54;5.00;;;2.25;;
23236;SDS011;11787;52.018;8.570;2023-04-03T19:04:20;4.53;;;2.15;;
23236;SDS011;11787;52.018;8.570;2023-04-03T19:06:46;4.35;;;2.40;;